sensor_id;sensor_type;location;lat;lon;timestamp;P1;durP1;ratioP1;P2;durP2;ratioP2
59159;SDS011;44941;45.058;20.076;2023-04-24T00:01:16;16.80;;;7.28;;
59159;SDS011;44941;45.058;20.076;2023-04-24T00:03:44;18.35;;;7.30;;
59159;SDS011;44941;45.058;20.076;2023-04-24T00:06:10;17.92;;;7.40;;
59159;SDS011;44941;45.058;20.076;2023-04-24T00:08:36;13.32;;;6.68;;
59159;SDS011;44941;45.058;20.076;2023-04-24T00:11:02;12.70;;;7.05;;
59159;SDS011;44941;45.058;20.076;2023-04-24T00:13:28;13.18;;;6.72;;
59159;SDS011;44941;45.058;20.076;2023-04-24T00:15:55;15.25;;;6.95;;
59159;SDS011;44941;45.058;20.076;2023-04-24T00:18:21;15.13;;;7.80;;
59159;SDS011;44941;45.058;20.076;2023-04-24T00:20:47;14.07;;;7.65;;
59159;SDS011;44941;45.058;20.076;2023-04-24T00:23:13;14.60;;;7.43;;
59159;SDS011;44941;45.058;20.076;2023-04-24T00:25:39;11.63;;;6.55;;
59159;SDS011;44941;45.058;20.076;2023-04-24T00:28:05;12.43;;;7.43;;
59159;SDS011;44941;45.058;20.076;2023-04-24T00:30:32;14.48;;;7.72;;
59159;SDS011;44941;45.058;20.076;2023-04-24T00:32:58;16.23;;;7.43;;
59159;SDS011;44941;45.058;20.076;2023-04-24T00:35:31;14.20;;;7.18;;
59159;SDS011;44941;45.058;20.076;2023-04-24T00:37:57;13.48;;;7.25;;
59159;SDS011;44941;45.058;20.076;2023-04-24T00:40:23;13.68;;;6.85;;
59159;SDS011;44941;45.058;20.076;2023-04-24T00:42:49;15.80;;;6.95;;
59159;SDS011;44941;45.058;20.076;2023-04-24T00:45:15;13.18;;;6.40;;
59159;SDS011;44941;45.058;20.076;2023-04-24T00:47:41;14.68;;;7.03;;
59159;SDS011;44941;45.058;20.076;2023-04-24T00:50:08;12.90;;;6.95;;
59159;SDS011;44941;45.058;20.076;2023-04-24T00:52:34;12.80;;;6.70;;
59159;SDS011;44941;45.058;20.076;2023-04-24T00:55:00;13.30;;;7.35;;
59159;SDS011;44941;45.058;20.076;2023-04-24T00:57:27;12.27;;;6.35;;
59159;SDS011;44941;45.058;20.076;2023-04-24T00:59:53;14.13;;;6.55;;
59159;SDS011;44941;45.058;20.076;2023-04-24T01:02:19;13.90;;;6.32;;
59159;SDS011;44941;45.058;20.076;2023-04-24T01:04:47;12.75;;;6.10;;
59159;SDS011;44941;45.058;20.076;2023-04-24T01:07:14;15.45;;;6.85;;
59159;SDS011;44941;45.058;20.076;2023-04-24T01:09:41;13.07;;;6.20;;
59159;SDS011;44941;45.058;20.076;2023-04-24T01:12:07;14.93;;;6.40;;
59159;SDS011;44941;45.058;20.076;2023-04-24T01:14:34;11.70;;;5.60;;
59159;SDS011;44941;45.058;20.076;2023-04-24T01:17:00;11.30;;;5.80;;
59159;SDS011;44941;45.058;20.076;2023-04-24T01:19:26;11.32;;;5.15;;
59159;SDS011;44941;45.058;20.076;2023-04-24T01:21:53;10.93;;;5.75;;
59159;SDS011;44941;45.058;20.076;2023-04-24T01:24:19;14.23;;;6.15;;
59159;SDS011;44941;45.058;20.076;2023-04-24T01:26:46;11.85;;;5.40;;
59159;SDS011;44941;45.058;20.076;2023-04-24T01:29:12;11.75;;;5.85;;
59159;SDS011;44941;45.058;20.076;2023-04-24T01:31:39;12.60;;;5.72;;
59159;SDS011;44941;45.058;20.076;2023-04-24T01:34:05;11.45;;;5.65;;
59159;SDS011;44941;45.058;20.076;2023-04-24T01:36:31;11.93;;;5.03;;
59159;SDS011;44941;45.058;20.076;2023-04-24T01:39:00;9.55;;;5.22;;
59159;SDS011;44941;45.058;20.076;2023-04-24T01:41:26;9.60;;;5.65;;
59159;SDS011;44941;45.058;20.076;2023-04-24T01:43:52;12.50;;;5.32;;
59159;SDS011;44941;45.058;20.076;2023-04-24T01:46:19;11.15;;;5.60;;
59159;SDS011;44941;45.058;20.076;2023-04-24T01:48:46;10.98;;;5.13;;
59159;SDS011;44941;45.058;20.076;2023-04-24T01:51:12;16.38;;;6.03;;
59159;SDS011;44941;45.058;20.076;2023-04-24T01:53:38;19.33;;;5.82;;
59159;SDS011;44941;45.058;20.076;2023-04-24T01:56:04;10.07;;;5.47;;
59159;SDS011;44941;45.058;20.076;2023-04-24T01:58:30;9.02;;;5.47;;
59159;SDS011;44941;45.058;20.076;2023-04-24T02:00:57;8.50;;;5.00;;
59159;SDS011;44941;45.058;20.076;2023-04-24T02:03:25;11.30;;;5.82;;
59159;SDS011;44941;45.058;20.076;2023-04-24T02:06:03;10.93;;;5.90;;
59159;SDS011;44941;45.058;20.076;2023-04-24T02:08:29;12.65;;;5.95;;
59159;SDS011;44941;45.058;20.076;2023-04-24T02:10:55;15.23;;;6.10;;
59159;SDS011;44941;45.058;20.076;2023-04-24T02:13:21;11.00;;;5.50;;
59159;SDS011;44941;45.058;20.076;2023-04-24T02:15:47;9.73;;;5.45;;
59159;SDS011;44941;45.058;20.076;2023-04-24T02:18:13;11.85;;;5.90;;
59159;SDS011;44941;45.058;20.076;2023-04-24T02:20:40;11.55;;;5.70;;
59159;SDS011;44941;45.058;20.076;2023-04-24T02:23:19;11.45;;;5.22;;
59159;SDS011;44941;45.058;20.076;2023-04-24T02:25:45;10.95;;;5.90;;
59159;SDS011;44941;45.058;20.076;2023-04-24T02:28:11;12.50;;;5.40;;
59159;SDS011;44941;45.058;20.076;2023-04-24T02:30:37;13.93;;;5.78;;
59159;SDS011;44941;45.058;20.076;2023-04-24T02:33:03;10.10;;;5.75;;
59159;SDS011;44941;45.058;20.076;2023-04-24T02:35:29;13.77;;;5.78;;
59159;SDS011;44941;45.058;20.076;2023-04-24T02:37:55;11.52;;;5.82;;
59159;SDS011;44941;45.058;20.076;2023-04-24T02:40:21;11.23;;;5.93;;
59159;SDS011;44941;45.058;20.076;2023-04-24T02:42:47;11.18;;;6.25;;
59159;SDS011;44941;45.058;20.076;2023-04-24T02:45:13;12.60;;;5.88;;
59159;SDS011;44941;45.058;20.076;2023-04-24T02:47:39;9.10;;;5.10;;
59159;SDS011;44941;45.058;20.076;2023-04-24T02:50:06;12.43;;;5.60;;
59159;SDS011;44941;45.058;20.076;2023-04-24T02:52:32;12.63;;;5.65;;
59159;SDS011;44941;45.058;20.076;2023-04-24T02:54:58;11.23;;;5.35;;
59159;SDS011;44941;45.058;20.076;2023-04-24T02:57:24;12.27;;;5.70;;
59159;SDS011;44941;45.058;20.076;2023-04-24T02:59:50;10.13;;;5.47;;
59159;SDS011;44941;45.058;20.076;2023-04-24T03:02:16;9.50;;;5.20;;
59159;SDS011;44941;45.058;20.076;2023-04-24T03:04:42;9.55;;;5.18;;
59159;SDS011;44941;45.058;20.076;2023-04-24T03:07:09;8.82;;;5.47;;
59159;SDS011;44941;45.058;20.076;2023-04-24T03:09:35;11.43;;;5.18;;
59159;SDS011;44941;45.058;20.076;2023-04-24T03:12:01;12.18;;;5.50;;
59159;SDS011;44941;45.058;20.076;2023-04-24T03:14:27;11.15;;;5.38;;
59159;SDS011;44941;45.058;20.076;2023-04-24T03:16:56;10.15;;;5.32;;
59159;SDS011;44941;45.058;20.076;2023-04-24T03:19:22;12.02;;;5.38;;
59159;SDS011;44941;45.058;20.076;2023-04-24T03:22:03;11.27;;;5.95;;
59159;SDS011;44941;45.058;20.076;2023-04-24T03:24:29;10.23;;;5.28;;
59159;SDS011;44941;45.058;20.076;2023-04-24T03:26:56;10.15;;;5.85;;
59159;SDS011;44941;45.058;20.076;2023-04-24T03:29:22;16.73;;;5.55;;
59159;SDS011;44941;45.058;20.076;2023-04-24T03:31:48;8.70;;;5.45;;
59159;SDS011;44941;45.058;20.076;2023-04-24T03:34:14;10.68;;;4.90;;
59159;SDS011;44941;45.058;20.076;2023-04-24T03:36:47;8.77;;;5.00;;
59159;SDS011;44941;45.058;20.076;2023-04-24T03:39:13;10.50;;;5.60;;
59159;SDS011;44941;45.058;20.076;2023-04-24T03:41:39;13.43;;;5.93;;
59159;SDS011;44941;45.058;20.076;2023-04-24T03:44:05;12.20;;;6.43;;
59159;SDS011;44941;45.058;20.076;2023-04-24T03:46:31;12.95;;;5.95;;
59159;SDS011;44941;45.058;20.076;2023-04-24T03:48:57;12.00;;;6.93;;
59159;SDS011;44941;45.058;20.076;2023-04-24T03:51:24;11.95;;;6.78;;
59159;SDS011;44941;45.058;20.076;2023-04-24T03:53:50;9.52;;;5.85;;
59159;SDS011;44941;45.058;20.076;2023-04-24T03:56:16;14.10;;;6.20;;
59159;SDS011;44941;45.058;20.076;2023-04-24T03:58:43;10.20;;;6.35;;
59159;SDS011;44941;45.058;20.076;2023-04-24T04:01:09;11.73;;;6.50;;
59159;SDS011;44941;45.058;20.076;2023-04-24T04:03:36;14.80;;;5.95;;
59159;SDS011;44941;45.058;20.076;2023-04-24T04:06:02;9.90;;;5.13;;
59159;SDS011;44941;45.058;20.076;2023-04-24T04:08:35;11.38;;;6.05;;
59159;SDS011;44941;45.058;20.076;2023-04-24T04:11:01;9.07;;;5.22;;
59159;SDS011;44941;45.058;20.076;2023-04-24T04:13:27;13.35;;;5.70;;
59159;SDS011;44941;45.058;20.076;2023-04-24T04:15:53;10.55;;;5.90;;
59159;SDS011;44941;45.058;20.076;2023-04-24T04:18:20;10.15;;;6.07;;
59159;SDS011;44941;45.058;20.076;2023-04-24T04:20:46;10.27;;;5.75;;
59159;SDS011;44941;45.058;20.076;2023-04-24T04:23:12;15.18;;;5.60;;
59159;SDS011;44941;45.058;20.076;2023-04-24T04:25:38;11.55;;;5.55;;
59159;SDS011;44941;45.058;20.076;2023-04-24T04:28:04;11.60;;;5.63;;
59159;SDS011;44941;45.058;20.076;2023-04-24T04:30:31;12.23;;;5.45;;
59159;SDS011;44941;45.058;20.076;2023-04-24T04:32:57;10.35;;;5.43;;
59159;SDS011;44941;45.058;20.076;2023-04-24T04:35:24;14.38;;;5.45;;
59159;SDS011;44941;45.058;20.076;2023-04-24T04:37:50;12.23;;;5.30;;
59159;SDS011;44941;45.058;20.076;2023-04-24T04:40:16;9.85;;;5.40;;
59159;SDS011;44941;45.058;20.076;2023-04-24T04:42:42;10.18;;;4.82;;
59159;SDS011;44941;45.058;20.076;2023-04-24T04:45:11;9.30;;;4.55;;
59159;SDS011;44941;45.058;20.076;2023-04-24T04:47:37;10.07;;;5.43;;
59159;SDS011;44941;45.058;20.076;2023-04-24T04:50:04;12.03;;;5.27;;
59159;SDS011;44941;45.058;20.076;2023-04-24T04:52:31;11.48;;;5.35;;
59159;SDS011;44941;45.058;20.076;2023-04-24T04:54:57;14.73;;;6.30;;
59159;SDS011;44941;45.058;20.076;2023-04-24T04:57:23;14.63;;;5.82;;
59159;SDS011;44941;45.058;20.076;2023-04-24T04:59:49;14.52;;;5.95;;
59159;SDS011;44941;45.058;20.076;2023-04-24T05:02:15;15.93;;;5.15;;
59159;SDS011;44941;45.058;20.076;2023-04-24T05:04:41;11.52;;;5.28;;
59159;SDS011;44941;45.058;20.076;2023-04-24T05:07:07;9.45;;;5.07;;
59159;SDS011;44941;45.058;20.076;2023-04-24T05:09:34;11.02;;;5.88;;
59159;SDS011;44941;45.058;20.076;2023-04-24T05:12:00;12.52;;;5.97;;
59159;SDS011;44941;45.058;20.076;2023-04-24T05:14:27;12.35;;;5.75;;
59159;SDS011;44941;45.058;20.076;2023-04-24T05:16:53;8.65;;;5.15;;
59159;SDS011;44941;45.058;20.076;2023-04-24T05:19:19;9.23;;;5.13;;
59159;SDS011;44941;45.058;20.076;2023-04-24T05:21:45;9.73;;;5.30;;
59159;SDS011;44941;45.058;20.076;2023-04-24T05:24:11;8.73;;;5.22;;
59159;SDS011;44941;45.058;20.076;2023-04-24T05:26:37;9.73;;;5.03;;
59159;SDS011;44941;45.058;20.076;2023-04-24T05:29:03;9.02;;;4.85;;
59159;SDS011;44941;45.058;20.076;2023-04-24T05:31:30;8.77;;;5.10;;
59159;SDS011;44941;45.058;20.076;2023-04-24T05:33:56;10.38;;;5.07;;
59159;SDS011;44941;45.058;20.076;2023-04-24T05:36:22;9.80;;;5.65;;
59159;SDS011;44941;45.058;20.076;2023-04-24T05:38:48;10.18;;;4.97;;
59159;SDS011;44941;45.058;20.076;2023-04-24T05:41:14;9.73;;;5.45;;
59159;SDS011;44941;45.058;20.076;2023-04-24T05:43:40;8.82;;;5.50;;
59159;SDS011;44941;45.058;20.076;2023-04-24T05:46:06;9.35;;;5.32;;
59159;SDS011;44941;45.058;20.076;2023-04-24T05:48:32;10.30;;;5.32;;
59159;SDS011;44941;45.058;20.076;2023-04-24T05:50:58;14.70;;;5.97;;
59159;SDS011;44941;45.058;20.076;2023-04-24T05:53:24;10.07;;;5.15;;
59159;SDS011;44941;45.058;20.076;2023-04-24T05:55:51;9.27;;;6.13;;
59159;SDS011;44941;45.058;20.076;2023-04-24T05:58:17;10.45;;;5.30;;
59159;SDS011;44941;45.058;20.076;2023-04-24T06:00:43;12.07;;;4.70;;
59159;SDS011;44941;45.058;20.076;2023-04-24T06:03:11;12.93;;;5.07;;
59159;SDS011;44941;45.058;20.076;2023-04-24T06:05:37;7.70;;;4.75;;
59159;SDS011;44941;45.058;20.076;2023-04-24T06:08:03;8.27;;;4.97;;
59159;SDS011;44941;45.058;20.076;2023-04-24T06:10:29;10.38;;;4.82;;
59159;SDS011;44941;45.058;20.076;2023-04-24T06:12:55;10.23;;;5.07;;
59159;SDS011;44941;45.058;20.076;2023-04-24T06:15:25;10.02;;;4.95;;
59159;SDS011;44941;45.058;20.076;2023-04-24T06:17:51;8.70;;;5.03;;
59159;SDS011;44941;45.058;20.076;2023-04-24T06:20:17;8.32;;;4.75;;
59159;SDS011;44941;45.058;20.076;2023-04-24T06:22:43;9.15;;;5.18;;
59159;SDS011;44941;45.058;20.076;2023-04-24T06:25:09;8.68;;;5.22;;
59159;SDS011;44941;45.058;20.076;2023-04-24T06:27:35;9.13;;;4.90;;
59159;SDS011;44941;45.058;20.076;2023-04-24T06:30:02;11.30;;;5.13;;
59159;SDS011;44941;45.058;20.076;2023-04-24T06:32:28;14.20;;;4.93;;
59159;SDS011;44941;45.058;20.076;2023-04-24T06:34:55;13.65;;;5.15;;
59159;SDS011;44941;45.058;20.076;2023-04-24T06:37:21;9.85;;;5.20;;
59159;SDS011;44941;45.058;20.076;2023-04-24T06:39:48;9.70;;;5.15;;
59159;SDS011;44941;45.058;20.076;2023-04-24T06:42:14;10.52;;;4.90;;
59159;SDS011;44941;45.058;20.076;2023-04-24T06:44:40;8.10;;;4.88;;
59159;SDS011;44941;45.058;20.076;2023-04-24T06:47:07;11.52;;;5.60;;
59159;SDS011;44941;45.058;20.076;2023-04-24T06:49:34;9.47;;;5.10;;
59159;SDS011;44941;45.058;20.076;2023-04-24T06:52:00;8.40;;;4.70;;
59159;SDS011;44941;45.058;20.076;2023-04-24T06:54:26;11.75;;;5.20;;
59159;SDS011;44941;45.058;20.076;2023-04-24T06:56:52;9.80;;;4.47;;
59159;SDS011;44941;45.058;20.076;2023-04-24T06:59:18;13.05;;;5.13;;
59159;SDS011;44941;45.058;20.076;2023-04-24T07:01:44;9.27;;;4.68;;
59159;SDS011;44941;45.058;20.076;2023-04-24T07:04:11;18.40;;;7.97;;
59159;SDS011;44941;45.058;20.076;2023-04-24T07:06:38;10.80;;;5.63;;
59159;SDS011;44941;45.058;20.076;2023-04-24T07:09:04;10.18;;;4.97;;
59159;SDS011;44941;45.058;20.076;2023-04-24T07:11:30;12.50;;;5.25;;
59159;SDS011;44941;45.058;20.076;2023-04-24T07:13:57;7.70;;;5.00;;
59159;SDS011;44941;45.058;20.076;2023-04-24T07:16:23;12.68;;;6.03;;
59159;SDS011;44941;45.058;20.076;2023-04-24T07:18:52;14.05;;;6.60;;
59159;SDS011;44941;45.058;20.076;2023-04-24T07:21:18;12.05;;;5.35;;
59159;SDS011;44941;45.058;20.076;2023-04-24T07:23:44;9.32;;;4.97;;
59159;SDS011;44941;45.058;20.076;2023-04-24T07:26:10;10.15;;;5.07;;
59159;SDS011;44941;45.058;20.076;2023-04-24T07:28:36;13.95;;;6.20;;
59159;SDS011;44941;45.058;20.076;2023-04-24T07:31:02;11.35;;;6.50;;
59159;SDS011;44941;45.058;20.076;2023-04-24T07:33:29;9.63;;;5.15;;
59159;SDS011;44941;45.058;20.076;2023-04-24T07:35:55;11.10;;;4.90;;
59159;SDS011;44941;45.058;20.076;2023-04-24T07:38:21;10.40;;;5.30;;
59159;SDS011;44941;45.058;20.076;2023-04-24T07:40:48;21.60;;;6.18;;
59159;SDS011;44941;45.058;20.076;2023-04-24T07:43:14;11.00;;;5.28;;
59159;SDS011;44941;45.058;20.076;2023-04-24T07:45:40;13.38;;;5.72;;
59159;SDS011;44941;45.058;20.076;2023-04-24T07:48:06;11.93;;;5.28;;
59159;SDS011;44941;45.058;20.076;2023-04-24T07:50:34;9.52;;;4.90;;
59159;SDS011;44941;45.058;20.076;2023-04-24T07:53:01;12.20;;;5.80;;
59159;SDS011;44941;45.058;20.076;2023-04-24T07:55:27;13.25;;;5.88;;
59159;SDS011;44941;45.058;20.076;2023-04-24T07:57:53;11.38;;;5.40;;
59159;SDS011;44941;45.058;20.076;2023-04-24T08:00:19;12.18;;;6.28;;
59159;SDS011;44941;45.058;20.076;2023-04-24T08:02:45;13.95;;;5.60;;
59159;SDS011;44941;45.058;20.076;2023-04-24T08:05:12;11.95;;;6.13;;
59159;SDS011;44941;45.058;20.076;2023-04-24T08:07:38;9.57;;;6.03;;
59159;SDS011;44941;45.058;20.076;2023-04-24T08:10:04;11.95;;;6.20;;
59159;SDS011;44941;45.058;20.076;2023-04-24T08:12:30;13.30;;;6.35;;
59159;SDS011;44941;45.058;20.076;2023-04-24T08:14:57;13.10;;;6.53;;
59159;SDS011;44941;45.058;20.076;2023-04-24T08:17:23;11.55;;;6.25;;
59159;SDS011;44941;45.058;20.076;2023-04-24T08:19:50;9.73;;;6.85;;
59159;SDS011;44941;45.058;20.076;2023-04-24T08:22:18;13.20;;;6.18;;
59159;SDS011;44941;45.058;20.076;2023-04-24T08:24:44;9.13;;;6.50;;
59159;SDS011;44941;45.058;20.076;2023-04-24T08:27:12;12.85;;;6.55;;
59159;SDS011;44941;45.058;20.076;2023-04-24T08:29:38;15.32;;;6.57;;
59159;SDS011;44941;45.058;20.076;2023-04-24T08:32:04;11.48;;;6.43;;
59159;SDS011;44941;45.058;20.076;2023-04-24T08:34:34;10.73;;;5.95;;
59159;SDS011;44941;45.058;20.076;2023-04-24T08:37:00;12.73;;;6.00;;
59159;SDS011;44941;45.058;20.076;2023-04-24T08:39:26;12.10;;;6.18;;
59159;SDS011;44941;45.058;20.076;2023-04-24T08:41:52;11.32;;;6.07;;
59159;SDS011;44941;45.058;20.076;2023-04-24T08:44:19;15.10;;;6.60;;
59159;SDS011;44941;45.058;20.076;2023-04-24T10:13:42;12.27;;;6.03;;
59159;SDS011;44941;45.058;20.076;2023-04-24T10:16:09;11.40;;;6.03;;
59159;SDS011;44941;45.058;20.076;2023-04-24T10:18:35;10.98;;;5.72;;
59159;SDS011;44941;45.058;20.076;2023-04-24T10:21:01;11.43;;;6.07;;
59159;SDS011;44941;45.058;20.076;2023-04-24T10:23:28;13.15;;;6.50;;
59159;SDS011;44941;45.058;20.076;2023-04-24T10:25:54;9.40;;;6.15;;
59159;SDS011;44941;45.058;20.076;2023-04-24T10:28:20;10.35;;;6.03;;
59159;SDS011;44941;45.058;20.076;2023-04-24T10:30:47;10.52;;;5.72;;
59159;SDS011;44941;45.058;20.076;2023-04-24T10:33:13;15.40;;;5.93;;
59159;SDS011;44941;45.058;20.076;2023-04-24T10:35:44;12.48;;;5.40;;
59159;SDS011;44941;45.058;20.076;2023-04-24T10:38:14;9.75;;;5.55;;
59159;SDS011;44941;45.058;20.076;2023-04-24T10:40:42;12.35;;;5.10;;
59159;SDS011;44941;45.058;20.076;2023-04-24T10:43:11;11.85;;;5.35;;
59159;SDS011;44941;45.058;20.076;2023-04-24T10:45:42;11.00;;;5.18;;
59159;SDS011;44941;45.058;20.076;2023-04-24T10:48:26;9.05;;;5.00;;
59159;SDS011;44941;45.058;20.076;2023-04-24T10:50:52;13.83;;;5.63;;
59159;SDS011;44941;45.058;20.076;2023-04-24T10:53:22;8.02;;;4.70;;
59159;SDS011;44941;45.058;20.076;2023-04-24T10:55:50;11.43;;;5.07;;
59159;SDS011;44941;45.058;20.076;2023-04-24T10:58:16;13.52;;;5.97;;
59159;SDS011;44941;45.058;20.076;2023-04-24T11:00:43;15.88;;;6.30;;
59159;SDS011;44941;45.058;20.076;2023-04-24T11:03:32;13.23;;;6.03;;
59159;SDS011;44941;45.058;20.076;2023-04-24T11:05:57;12.60;;;6.18;;
59159;SDS011;44941;45.058;20.076;2023-04-24T11:10:55;11.15;;;5.63;;
59159;SDS011;44941;45.058;20.076;2023-04-24T11:18:52;9.65;;;4.65;;
59159;SDS011;44941;45.058;20.076;2023-04-24T11:21:25;9.15;;;4.45;;
59159;SDS011;44941;45.058;20.076;2023-04-24T11:24:20;12.65;;;5.00;;
59159;SDS011;44941;45.058;20.076;2023-04-24T11:26:46;7.88;;;3.95;;
59159;SDS011;44941;45.058;20.076;2023-04-24T11:29:12;16.20;;;5.07;;
59159;SDS011;44941;45.058;20.076;2023-04-24T11:31:39;10.05;;;4.22;;
59159;SDS011;44941;45.058;20.076;2023-04-24T11:34:09;10.52;;;4.72;;
59159;SDS011;44941;45.058;20.076;2023-04-24T11:36:36;8.70;;;4.57;;
59159;SDS011;44941;45.058;20.076;2023-04-24T11:39:02;13.25;;;5.25;;
59159;SDS011;44941;45.058;20.076;2023-04-24T11:41:28;9.55;;;4.50;;
59159;SDS011;44941;45.058;20.076;2023-04-24T11:43:55;11.50;;;4.72;;
59159;SDS011;44941;45.058;20.076;2023-04-24T11:46:22;11.85;;;4.63;;
59159;SDS011;44941;45.058;20.076;2023-04-24T11:48:48;9.57;;;4.85;;
59159;SDS011;44941;45.058;20.076;2023-04-24T11:51:14;9.73;;;4.40;;
59159;SDS011;44941;45.058;20.076;2023-04-24T11:53:40;13.20;;;5.50;;
59159;SDS011;44941;45.058;20.076;2023-04-24T11:56:08;9.00;;;4.78;;
59159;SDS011;44941;45.058;20.076;2023-04-24T11:58:40;10.57;;;4.78;;
59159;SDS011;44941;45.058;20.076;2023-04-24T12:01:06;8.23;;;3.53;;
59159;SDS011;44941;45.058;20.076;2023-04-24T12:03:33;15.00;;;4.13;;
59159;SDS011;44941;45.058;20.076;2023-04-24T12:06:08;6.38;;;3.63;;
59159;SDS011;44941;45.058;20.076;2023-04-24T12:08:35;8.82;;;3.90;;
59159;SDS011;44941;45.058;20.076;2023-04-24T12:11:02;10.40;;;3.65;;
59159;SDS011;44941;45.058;20.076;2023-04-24T12:13:29;8.77;;;4.07;;
59159;SDS011;44941;45.058;20.076;2023-04-24T12:15:59;9.20;;;3.78;;
59159;SDS011;44941;45.058;20.076;2023-04-24T12:18:25;10.23;;;3.47;;
59159;SDS011;44941;45.058;20.076;2023-04-24T12:20:51;7.72;;;3.00;;
59159;SDS011;44941;45.058;20.076;2023-04-24T12:23:33;10.48;;;3.38;;
59159;SDS011;44941;45.058;20.076;2023-04-24T12:26:00;10.45;;;3.13;;
59159;SDS011;44941;45.058;20.076;2023-04-24T12:28:33;11.00;;;3.05;;
59159;SDS011;44941;45.058;20.076;2023-04-24T12:31:00;8.38;;;3.03;;
59159;SDS011;44941;45.058;20.076;2023-04-24T12:36:16;10.55;;;3.25;;
59159;SDS011;44941;45.058;20.076;2023-04-24T12:38:43;8.95;;;3.08;;
59159;SDS011;44941;45.058;20.076;2023-04-24T12:41:12;9.73;;;2.67;;
59159;SDS011;44941;45.058;20.076;2023-04-24T12:43:50;10.25;;;3.40;;
59159;SDS011;44941;45.058;20.076;2023-04-24T12:46:19;8.60;;;3.15;;
59159;SDS011;44941;45.058;20.076;2023-04-24T12:48:46;13.18;;;5.47;;
59159;SDS011;44941;45.058;20.076;2023-04-24T12:51:12;12.38;;;4.07;;
59159;SDS011;44941;45.058;20.076;2023-04-24T12:53:39;9.75;;;4.20;;
59159;SDS011;44941;45.058;20.076;2023-04-24T12:56:05;8.10;;;3.67;;
59159;SDS011;44941;45.058;20.076;2023-04-24T12:58:31;9.32;;;3.80;;
59159;SDS011;44941;45.058;20.076;2023-04-24T13:00:58;8.48;;;3.78;;
59159;SDS011;44941;45.058;20.076;2023-04-24T13:05:51;5.72;;;2.63;;
59159;SDS011;44941;45.058;20.076;2023-04-24T13:08:18;7.53;;;2.63;;
59159;SDS011;44941;45.058;20.076;2023-04-24T13:10:44;7.78;;;2.78;;
59159;SDS011;44941;45.058;20.076;2023-04-24T13:13:10;9.88;;;2.20;;
59159;SDS011;44941;45.058;20.076;2023-04-24T13:15:36;8.45;;;2.85;;
59159;SDS011;44941;45.058;20.076;2023-04-24T13:18:18;7.25;;;3.05;;
59159;SDS011;44941;45.058;20.076;2023-04-24T13:20:44;13.30;;;4.70;;
59159;SDS011;44941;45.058;20.076;2023-04-24T13:23:12;11.13;;;6.15;;
59159;SDS011;44941;45.058;20.076;2023-04-24T13:25:38;12.65;;;5.90;;
59159;SDS011;44941;45.058;20.076;2023-04-24T13:28:04;12.65;;;6.28;;
59159;SDS011;44941;45.058;20.076;2023-04-24T13:30:31;10.32;;;6.30;;
59159;SDS011;44941;45.058;20.076;2023-04-24T13:32:57;13.65;;;6.32;;
59159;SDS011;44941;45.058;20.076;2023-04-24T13:35:23;11.63;;;6.60;;
59159;SDS011;44941;45.058;20.076;2023-04-24T13:37:49;13.48;;;7.43;;
59159;SDS011;44941;45.058;20.076;2023-04-24T13:40:15;10.18;;;6.10;;
59159;SDS011;44941;45.058;20.076;2023-04-24T13:42:41;9.90;;;5.18;;
59159;SDS011;44941;45.058;20.076;2023-04-24T13:45:08;12.40;;;6.43;;
59159;SDS011;44941;45.058;20.076;2023-04-24T13:47:35;9.27;;;5.77;;
59159;SDS011;44941;45.058;20.076;2023-04-24T13:50:01;11.98;;;6.95;;
59159;SDS011;44941;45.058;20.076;2023-04-24T13:52:28;12.00;;;5.85;;
59159;SDS011;44941;45.058;20.076;2023-04-24T13:54:54;12.75;;;6.13;;
59159;SDS011;44941;45.058;20.076;2023-04-24T13:57:20;9.57;;;6.20;;
59159;SDS011;44941;45.058;20.076;2023-04-24T13:59:46;11.35;;;6.63;;
59159;SDS011;44941;45.058;20.076;2023-04-24T14:02:12;10.60;;;5.90;;
59159;SDS011;44941;45.058;20.076;2023-04-24T14:04:42;12.50;;;6.45;;
59159;SDS011;44941;45.058;20.076;2023-04-24T14:07:08;13.30;;;6.85;;
59159;SDS011;44941;45.058;20.076;2023-04-24T14:09:34;12.43;;;6.15;;
59159;SDS011;44941;45.058;20.076;2023-04-24T14:12:00;12.15;;;5.88;;
59159;SDS011;44941;45.058;20.076;2023-04-24T14:14:27;9.55;;;6.20;;
59159;SDS011;44941;45.058;20.076;2023-04-24T14:19:36;9.07;;;6.00;;
59159;SDS011;44941;45.058;20.076;2023-04-24T14:22:02;13.43;;;6.70;;
59159;SDS011;44941;45.058;20.076;2023-04-24T14:24:28;9.02;;;6.13;;
59159;SDS011;44941;45.058;20.076;2023-04-24T14:26:54;10.75;;;5.72;;
59159;SDS011;44941;45.058;20.076;2023-04-24T14:29:21;10.50;;;5.90;;
59159;SDS011;44941;45.058;20.076;2023-04-24T14:31:48;14.17;;;6.30;;
59159;SDS011;44941;45.058;20.076;2023-04-24T14:34:27;10.80;;;6.47;;
59159;SDS011;44941;45.058;20.076;2023-04-24T14:39:19;10.48;;;6.75;;
59159;SDS011;44941;45.058;20.076;2023-04-24T14:41:45;13.98;;;8.00;;
59159;SDS011;44941;45.058;20.076;2023-04-24T14:44:11;12.52;;;6.40;;
59159;SDS011;44941;45.058;20.076;2023-04-24T14:46:37;18.35;;;7.10;;
59159;SDS011;44941;45.058;20.076;2023-04-24T14:49:04;16.70;;;6.57;;
59159;SDS011;44941;45.058;20.076;2023-04-24T14:51:30;10.65;;;6.18;;
59159;SDS011;44941;45.058;20.076;2023-04-24T14:53:56;13.43;;;7.40;;
59159;SDS011;44941;45.058;20.076;2023-04-24T14:56:22;12.07;;;6.72;;
59159;SDS011;44941;45.058;20.076;2023-04-24T14:58:49;12.52;;;6.78;;
59159;SDS011;44941;45.058;20.076;2023-04-24T15:01:15;12.25;;;7.18;;
59159;SDS011;44941;45.058;20.076;2023-04-24T15:03:41;13.45;;;7.30;;
59159;SDS011;44941;45.058;20.076;2023-04-24T15:06:07;14.40;;;7.15;;
59159;SDS011;44941;45.058;20.076;2023-04-24T15:08:33;10.93;;;7.03;;
59159;SDS011;44941;45.058;20.076;2023-04-24T15:10:59;10.90;;;6.65;;
59159;SDS011;44941;45.058;20.076;2023-04-24T15:13:25;12.40;;;6.13;;
59159;SDS011;44941;45.058;20.076;2023-04-24T15:15:51;9.95;;;5.90;;
59159;SDS011;44941;45.058;20.076;2023-04-24T15:18:18;9.65;;;6.22;;
59159;SDS011;44941;45.058;20.076;2023-04-24T15:20:44;11.48;;;5.45;;
59159;SDS011;44941;45.058;20.076;2023-04-24T15:23:10;10.30;;;6.10;;
59159;SDS011;44941;45.058;20.076;2023-04-24T15:25:37;11.88;;;6.40;;
59159;SDS011;44941;45.058;20.076;2023-04-24T15:28:03;9.00;;;5.90;;
59159;SDS011;44941;45.058;20.076;2023-04-24T15:30:32;12.60;;;5.68;;
59159;SDS011;44941;45.058;20.076;2023-04-24T15:32:59;9.88;;;5.35;;
59159;SDS011;44941;45.058;20.076;2023-04-24T15:35:26;10.40;;;5.07;;
59159;SDS011;44941;45.058;20.076;2023-04-24T15:37:52;9.90;;;4.95;;
59159;SDS011;44941;45.058;20.076;2023-04-24T15:40:18;9.23;;;4.80;;
59159;SDS011;44941;45.058;20.076;2023-04-24T15:42:44;13.00;;;5.05;;
59159;SDS011;44941;45.058;20.076;2023-04-24T15:45:11;9.15;;;5.22;;
59159;SDS011;44941;45.058;20.076;2023-04-24T15:47:37;9.75;;;4.88;;
59159;SDS011;44941;45.058;20.076;2023-04-24T15:50:04;9.93;;;5.30;;
59159;SDS011;44941;45.058;20.076;2023-04-24T15:52:30;9.48;;;4.40;;
59159;SDS011;44941;45.058;20.076;2023-04-24T15:54:56;11.60;;;5.50;;
59159;SDS011;44941;45.058;20.076;2023-04-24T15:57:22;10.30;;;5.47;;
59159;SDS011;44941;45.058;20.076;2023-04-24T15:59:48;9.85;;;5.05;;
59159;SDS011;44941;45.058;20.076;2023-04-24T16:02:15;11.40;;;5.47;;
59159;SDS011;44941;45.058;20.076;2023-04-24T16:04:46;8.18;;;5.25;;
59159;SDS011;44941;45.058;20.076;2023-04-24T16:07:15;9.68;;;5.75;;
59159;SDS011;44941;45.058;20.076;2023-04-24T16:09:44;11.35;;;5.90;;